sensor_id;sensor_type;location;lat;lon;timestamp;P1;durP1;ratioP1;P2;durP2;ratioP2
73331;SDS011;61560;33.718;73.040;2023-04-01T00:01:10;6.43;;;3.85;;
73331;SDS011;61560;33.718;73.040;2023-04-01T00:03:39;7.45;;;3.40;;
73331;SDS011;61560;33.718;73.040;2023-04-01T00:06:06;5.13;;;3.22;;
73331;SDS011;61560;33.718;73.040;2023-04-01T00:08:33;6.25;;;3.22;;
73331;SDS011;61560;33.718;73.040;2023-04-01T00:11:01;7.55;;;3.30;;
73331;SDS011;61560;33.718;73.040;2023-04-01T00:13:28;10.00;;;3.10;;
73331;SDS011;61560;33.718;73.040;2023-04-01T00:15:54;5.05;;;2.90;;
73331;SDS011;61560;33.718;73.040;2023-04-01T00:18:21;6.35;;;2.67;;
73331;SDS011;61560;33.718;73.040;2023-04-01T00:20:48;4.38;;;2.35;;
73331;SDS011;61560;33.718;73.040;2023-04-01T00:23:16;7.32;;;2.72;;
73331;SDS011;61560;33.718;73.040;2023-04-01T00:25:43;7.20;;;2.95;;
73331;SDS011;61560;33.718;73.040;2023-04-01T00:28:09;4.97;;;2.78;;
73331;SDS011;61560;33.718;73.040;2023-04-01T00:30:36;6.65;;;3.28;;
73331;SDS011;61560;33.718;73.040;2023-04-01T00:33:03;3.45;;;2.53;;
73331;SDS011;61560;33.718;73.040;2023-04-01T00:35:30;5.57;;;3.40;;
73331;SDS011;61560;33.718;73.040;2023-04-01T00:37:58;5.20;;;2.83;;
73331;SDS011;61560;33.718;73.040;2023-04-01T00:40:33;5.72;;;2.72;;
73331;SDS011;61560;33.718;73.040;2023-04-01T00:42:59;5.70;;;3.30;;
73331;SDS011;61560;33.718;73.040;2023-04-01T00:45:33;5.45;;;2.90;;
73331;SDS011;61560;33.718;73.040;2023-04-01T00:48:02;4.85;;;2.80;;
73331;SDS011;61560;33.718;73.040;2023-04-01T00:50:31;4.88;;;2.67;;
73331;SDS011;61560;33.718;73.040;2023-04-01T00:52:58;5.07;;;2.67;;
73331;SDS011;61560;33.718;73.040;2023-04-01T00:55:27;4.53;;;2.28;;
73331;SDS011;61560;33.718;73.040;2023-04-01T00:57:55;4.18;;;2.55;;
73331;SDS011;61560;33.718;73.040;2023-04-01T01:00:23;6.97;;;2.70;;
73331;SDS011;61560;33.718;73.040;2023-04-01T01:02:52;5.55;;;2.53;;
73331;SDS011;61560;33.718;73.040;2023-04-01T01:05:20;4.35;;;2.40;;
73331;SDS011;61560;33.718;73.040;2023-04-01T01:07:57;5.55;;;2.40;;
73331;SDS011;61560;33.718;73.040;2023-04-01T01:10:31;3.90;;;2.35;;
73331;SDS011;61560;33.718;73.040;2023-04-01T01:13:10;5.63;;;2.60;;
73331;SDS011;61560;33.718;73.040;2023-04-01T01:36:41;5.38;;;2.22;;
73331;SDS011;61560;33.718;73.040;2023-04-01T01:39:11;2.28;;;1.75;;
73331;SDS011;61560;33.718;73.040;2023-04-01T01:41:39;3.95;;;1.95;;
73331;SDS011;61560;33.718;73.040;2023-04-01T01:44:07;3.67;;;2.20;;
73331;SDS011;61560;33.718;73.040;2023-04-01T01:46:34;2.85;;;1.75;;
73331;SDS011;61560;33.718;73.040;2023-04-01T01:49:02;3.75;;;2.35;;
73331;SDS011;61560;33.718;73.040;2023-04-01T01:51:29;2.83;;;2.00;;
73331;SDS011;61560;33.718;73.040;2023-04-01T01:53:57;3.65;;;2.10;;
73331;SDS011;61560;33.718;73.040;2023-04-01T01:56:25;3.30;;;2.17;;
73331;SDS011;61560;33.718;73.040;2023-04-01T01:59:04;6.20;;;2.13;;
73331;SDS011;61560;33.718;73.040;2023-04-01T02:01:35;2.67;;;1.95;;
73331;SDS011;61560;33.718;73.040;2023-04-01T02:04:10;4.50;;;2.08;;
73331;SDS011;61560;33.718;73.040;2023-04-01T02:06:39;3.50;;;2.08;;
73331;SDS011;61560;33.718;73.040;2023-04-01T02:09:09;5.55;;;2.72;;
73331;SDS011;61560;33.718;73.040;2023-04-01T02:11:45;8.88;;;2.42;;
73331;SDS011;61560;33.718;73.040;2023-04-01T02:14:23;3.85;;;2.88;;
73331;SDS011;61560;33.718;73.040;2023-04-01T02:19:24;5.38;;;3.00;;
73331;SDS011;61560;33.718;73.040;2023-04-01T02:21:54;6.40;;;3.35;;
73331;SDS011;61560;33.718;73.040;2023-04-01T02:24:21;4.03;;;2.75;;
73331;SDS011;61560;33.718;73.040;2023-04-01T02:26:52;4.45;;;2.55;;
73331;SDS011;61560;33.718;73.040;2023-04-01T02:29:19;3.45;;;2.53;;
73331;SDS011;61560;33.718;73.040;2023-04-01T02:31:47;9.55;;;3.00;;
73331;SDS011;61560;33.718;73.040;2023-04-01T02:34:14;4.68;;;2.30;;
73331;SDS011;61560;33.718;73.040;2023-04-01T02:36:41;3.60;;;2.25;;
73331;SDS011;61560;33.718;73.040;2023-04-01T02:39:07;4.00;;;2.63;;
73331;SDS011;61560;33.718;73.040;2023-04-01T02:41:41;6.38;;;3.47;;
73331;SDS011;61560;33.718;73.040;2023-04-01T02:44:08;5.85;;;3.15;;
73331;SDS011;61560;33.718;73.040;2023-04-01T02:46:35;5.78;;;3.10;;
73331;SDS011;61560;33.718;73.040;2023-04-01T02:49:02;4.13;;;2.78;;
73331;SDS011;61560;33.718;73.040;2023-04-01T02:51:28;6.20;;;3.30;;
73331;SDS011;61560;33.718;73.040;2023-04-01T02:53:55;5.32;;;2.97;;
73331;SDS011;61560;33.718;73.040;2023-04-01T02:56:21;5.95;;;2.95;;
73331;SDS011;61560;33.718;73.040;2023-04-01T02:58:49;3.75;;;2.60;;
73331;SDS011;61560;33.718;73.040;2023-04-01T03:01:16;4.38;;;2.92;;
73331;SDS011;61560;33.718;73.040;2023-04-01T03:03:43;4.40;;;2.63;;
73331;SDS011;61560;33.718;73.040;2023-04-01T03:06:11;3.78;;;2.35;;
73331;SDS011;61560;33.718;73.040;2023-04-01T03:08:42;3.10;;;2.38;;
73331;SDS011;61560;33.718;73.040;2023-04-01T03:11:09;3.22;;;2.25;;
73331;SDS011;61560;33.718;73.040;2023-04-01T03:13:36;6.82;;;2.95;;
73331;SDS011;61560;33.718;73.040;2023-04-01T03:16:03;5.45;;;2.45;;
73331;SDS011;61560;33.718;73.040;2023-04-01T03:18:29;6.18;;;2.72;;
73331;SDS011;61560;33.718;73.040;2023-04-01T03:20:57;5.25;;;2.70;;
73331;SDS011;61560;33.718;73.040;2023-04-01T03:23:23;4.65;;;2.88;;
73331;SDS011;61560;33.718;73.040;2023-04-01T03:25:50;5.38;;;2.63;;
73331;SDS011;61560;33.718;73.040;2023-04-01T03:28:17;4.90;;;3.00;;
73331;SDS011;61560;33.718;73.040;2023-04-01T03:30:43;4.63;;;3.15;;
73331;SDS011;61560;33.718;73.040;2023-04-01T03:33:11;8.80;;;3.20;;
73331;SDS011;61560;33.718;73.040;2023-04-01T03:35:38;4.47;;;2.70;;
73331;SDS011;61560;33.718;73.040;2023-04-01T03:38:05;11.15;;;3.60;;
73331;SDS011;61560;33.718;73.040;2023-04-01T03:40:42;6.03;;;3.60;;
73331;SDS011;61560;33.718;73.040;2023-04-01T03:43:10;9.45;;;4.30;;
73331;SDS011;61560;33.718;73.040;2023-04-01T03:45:44;8.20;;;4.07;;
73331;SDS011;61560;33.718;73.040;2023-04-01T03:48:13;9.38;;;5.18;;
73331;SDS011;61560;33.718;73.040;2023-04-01T03:50:40;12.88;;;5.63;;
73331;SDS011;61560;33.718;73.040;2023-04-01T03:53:07;13.57;;;6.43;;
73331;SDS011;61560;33.718;73.040;2023-04-01T03:55:38;13.48;;;6.35;;
73331;SDS011;61560;33.718;73.040;2023-04-01T03:58:05;13.50;;;5.97;;
73331;SDS011;61560;33.718;73.040;2023-04-01T04:00:33;10.95;;;5.97;;
73331;SDS011;61560;33.718;73.040;2023-04-01T04:03:01;11.90;;;5.95;;
73331;SDS011;61560;33.718;73.040;2023-04-01T04:05:31;12.75;;;5.15;;
73331;SDS011;61560;33.718;73.040;2023-04-01T04:07:59;9.00;;;4.80;;
73331;SDS011;61560;33.718;73.040;2023-04-01T04:10:26;10.85;;;4.88;;
73331;SDS011;61560;33.718;73.040;2023-04-01T04:12:53;11.77;;;4.93;;
73331;SDS011;61560;33.718;73.040;2023-04-01T04:15:22;10.77;;;5.07;;
73331;SDS011;61560;33.718;73.040;2023-04-01T04:17:50;15.27;;;5.63;;
73331;SDS011;61560;33.718;73.040;2023-04-01T04:20:17;9.20;;;5.32;;
73331;SDS011;61560;33.718;73.040;2023-04-01T04:22:44;11.88;;;5.18;;
73331;SDS011;61560;33.718;73.040;2023-04-01T04:25:11;12.98;;;5.63;;
73331;SDS011;61560;33.718;73.040;2023-04-01T04:27:38;15.70;;;5.70;;
73331;SDS011;61560;33.718;73.040;2023-04-01T04:30:07;11.60;;;5.38;;
73331;SDS011;61560;33.718;73.040;2023-04-01T04:32:34;6.35;;;4.38;;
73331;SDS011;61560;33.718;73.040;2023-04-01T04:35:02;9.43;;;4.57;;
73331;SDS011;61560;33.718;73.040;2023-04-01T04:37:29;9.32;;;4.00;;
73331;SDS011;61560;33.718;73.040;2023-04-01T04:39:55;10.05;;;4.47;;
73331;SDS011;61560;33.718;73.040;2023-04-01T04:42:22;7.30;;;4.13;;
73331;SDS011;61560;33.718;73.040;2023-04-01T04:44:52;8.98;;;4.10;;
73331;SDS011;61560;33.718;73.040;2023-04-01T04:47:20;6.20;;;3.88;;
73331;SDS011;61560;33.718;73.040;2023-04-01T04:49:46;5.43;;;3.53;;
73331;SDS011;61560;33.718;73.040;2023-04-01T04:52:14;6.75;;;3.85;;
73331;SDS011;61560;33.718;73.040;2023-04-01T04:54:40;6.75;;;4.20;;
73331;SDS011;61560;33.718;73.040;2023-04-01T04:57:08;8.48;;;3.95;;
73331;SDS011;61560;33.718;73.040;2023-04-01T04:59:44;11.55;;;3.97;;
73331;SDS011;61560;33.718;73.040;2023-04-01T05:02:24;15.30;;;4.75;;
73331;SDS011;61560;33.718;73.040;2023-04-01T05:04:52;9.63;;;4.25;;
73331;SDS011;61560;33.718;73.040;2023-04-01T05:07:18;8.07;;;4.50;;
73331;SDS011;61560;33.718;73.040;2023-04-01T05:09:46;8.43;;;4.68;;
73331;SDS011;61560;33.718;73.040;2023-04-01T05:12:13;7.55;;;4.95;;
73331;SDS011;61560;33.718;73.040;2023-04-01T05:14:59;9.90;;;4.85;;
73331;SDS011;61560;33.718;73.040;2023-04-01T05:17:26;9.48;;;5.20;;
73331;SDS011;61560;33.718;73.040;2023-04-01T05:19:53;8.23;;;4.93;;
73331;SDS011;61560;33.718;73.040;2023-04-01T05:22:20;9.45;;;4.88;;
73331;SDS011;61560;33.718;73.040;2023-04-01T05:24:47;8.90;;;4.70;;
73331;SDS011;61560;33.718;73.040;2023-04-01T05:27:14;9.13;;;4.15;;
73331;SDS011;61560;33.718;73.040;2023-04-01T05:29:42;6.82;;;3.60;;
73331;SDS011;61560;33.718;73.040;2023-04-01T05:32:22;5.93;;;3.88;;
73331;SDS011;61560;33.718;73.040;2023-04-01T05:34:53;10.65;;;3.58;;
73331;SDS011;61560;33.718;73.040;2023-04-01T05:37:19;7.20;;;3.10;;
73331;SDS011;61560;33.718;73.040;2023-04-01T05:39:46;5.07;;;3.17;;
73331;SDS011;61560;33.718;73.040;2023-04-01T05:42:13;4.88;;;3.17;;
73331;SDS011;61560;33.718;73.040;2023-04-01T05:44:40;4.30;;;2.92;;
73331;SDS011;61560;33.718;73.040;2023-04-01T05:47:07;7.35;;;3.83;;
73331;SDS011;61560;33.718;73.040;2023-04-01T05:49:33;3.95;;;2.92;;
73331;SDS011;61560;33.718;73.040;2023-04-01T05:52:01;7.20;;;2.60;;
73331;SDS011;61560;33.718;73.040;2023-04-01T05:54:27;4.10;;;2.42;;
73331;SDS011;61560;33.718;73.040;2023-04-01T05:56:54;6.15;;;2.70;;
73331;SDS011;61560;33.718;73.040;2023-04-01T05:59:21;3.53;;;2.40;;
73331;SDS011;61560;33.718;73.040;2023-04-01T06:01:47;3.08;;;2.25;;
73331;SDS011;61560;33.718;73.040;2023-04-01T06:04:15;4.18;;;2.10;;
73331;SDS011;61560;33.718;73.040;2023-04-01T06:06:42;3.97;;;2.20;;
73331;SDS011;61560;33.718;73.040;2023-04-01T06:09:15;2.47;;;1.75;;
73331;SDS011;61560;33.718;73.040;2023-04-01T06:19:24;4.97;;;2.40;;
73331;SDS011;61560;33.718;73.040;2023-04-01T06:32:22;2.67;;;1.92;;
73331;SDS011;61560;33.718;73.040;2023-04-01T06:51:39;4.45;;;1.77;;
73331;SDS011;61560;33.718;73.040;2023-04-01T06:54:31;2.70;;;1.90;;
73331;SDS011;61560;33.718;73.040;2023-04-01T06:57:05;2.80;;;1.90;;
73331;SDS011;61560;33.718;73.040;2023-04-01T06:59:36;3.25;;;2.20;;
73331;SDS011;61560;33.718;73.040;2023-04-01T07:04:37;2.17;;;1.88;;
73331;SDS011;61560;33.718;73.040;2023-04-01T07:07:05;4.40;;;2.30;;
73331;SDS011;61560;33.718;73.040;2023-04-01T07:09:50;2.55;;;1.90;;
73331;SDS011;61560;33.718;73.040;2023-04-01T07:12:46;3.13;;;2.08;;
73331;SDS011;61560;33.718;73.040;2023-04-01T07:15:43;2.95;;;2.10;;
73331;SDS011;61560;33.718;73.040;2023-04-01T07:18:17;2.95;;;2.10;;
73331;SDS011;61560;33.718;73.040;2023-04-01T07:20:45;6.25;;;2.03;;
73331;SDS011;61560;33.718;73.040;2023-04-01T07:23:36;2.70;;;2.10;;
73331;SDS011;61560;33.718;73.040;2023-04-01T07:26:21;3.33;;;1.77;;
73331;SDS011;61560;33.718;73.040;2023-04-01T07:35:16;3.15;;;2.15;;
73331;SDS011;61560;33.718;73.040;2023-04-01T07:48:47;4.35;;;2.25;;
73331;SDS011;61560;33.718;73.040;2023-04-01T07:51:21;4.53;;;2.25;;
73331;SDS011;61560;33.718;73.040;2023-04-01T07:59:19;4.18;;;2.63;;
73331;SDS011;61560;33.718;73.040;2023-04-01T08:04:51;4.45;;;2.50;;
73331;SDS011;61560;33.718;73.040;2023-04-01T08:08:02;3.03;;;2.10;;
73331;SDS011;61560;33.718;73.040;2023-04-01T08:10:34;6.38;;;2.10;;
73331;SDS011;61560;33.718;73.040;2023-04-01T08:16:23;3.63;;;2.60;;
73331;SDS011;61560;33.718;73.040;2023-04-01T08:21:42;6.15;;;2.47;;
73331;SDS011;61560;33.718;73.040;2023-04-01T08:24:31;4.78;;;2.85;;
73331;SDS011;61560;33.718;73.040;2023-04-01T08:26:59;8.57;;;2.78;;
73331;SDS011;61560;33.718;73.040;2023-04-01T08:30:15;5.82;;;2.60;;
73331;SDS011;61560;33.718;73.040;2023-04-01T08:32:28;3.35;;;2.60;;
73331;SDS011;61560;33.718;73.040;2023-04-01T08:35:20;3.45;;;2.40;;
73331;SDS011;61560;33.718;73.040;2023-04-01T09:21:58;7.22;;;2.70;;
73331;SDS011;61560;33.718;73.040;2023-04-01T09:27:23;6.13;;;3.53;;
73331;SDS011;61560;33.718;73.040;2023-04-01T09:49:26;7.93;;;4.10;;
73331;SDS011;61560;33.718;73.040;2023-04-01T10:21:58;5.35;;;2.30;;
73331;SDS011;61560;33.718;73.040;2023-04-01T10:27:29;4.22;;;2.13;;
73331;SDS011;61560;33.718;73.040;2023-04-01T10:41:18;12.85;;;5.63;;
73331;SDS011;61560;33.718;73.040;2023-04-01T10:49:44;4.28;;;2.35;;
73331;SDS011;61560;33.718;73.040;2023-04-01T10:52:22;5.47;;;2.28;;
73331;SDS011;61560;33.718;73.040;2023-04-01T11:04:25;2.80;;;2.15;;
73331;SDS011;61560;33.718;73.040;2023-04-01T11:30:40;3.08;;;1.88;;
73331;SDS011;61560;33.718;73.040;2023-04-01T11:35:48;2.83;;;2.53;;
73331;SDS011;61560;33.718;73.040;2023-04-01T11:43:46;2.30;;;1.90;;
73331;SDS011;61560;33.718;73.040;2023-04-01T11:46:37;4.32;;;2.28;;
73331;SDS011;61560;33.718;73.040;2023-04-01T11:49:29;3.17;;;2.03;;
73331;SDS011;61560;33.718;73.040;2023-04-01T11:55:02;3.40;;;2.20;;
73331;SDS011;61560;33.718;73.040;2023-04-01T12:00:10;4.68;;;2.10;;
73331;SDS011;61560;33.718;73.040;2023-04-01T12:05:22;7.80;;;2.72;;
73331;SDS011;61560;33.718;73.040;2023-04-01T12:13:07;2.47;;;2.00;;
73331;SDS011;61560;33.718;73.040;2023-04-01T12:20:43;3.85;;;2.47;;
73331;SDS011;61560;33.718;73.040;2023-04-01T12:39:44;5.28;;;3.03;;
73331;SDS011;61560;33.718;73.040;2023-04-01T12:52:34;8.13;;;3.58;;
73331;SDS011;61560;33.718;73.040;2023-04-01T13:00:28;10.95;;;3.40;;
73331;SDS011;61560;33.718;73.040;2023-04-01T13:03:07;8.02;;;2.95;;
73331;SDS011;61560;33.718;73.040;2023-04-01T13:08:20;10.88;;;3.88;;
73331;SDS011;61560;33.718;73.040;2023-04-01T13:16:37;10.90;;;2.72;;
73331;SDS011;61560;33.718;73.040;2023-04-01T13:19:09;4.72;;;3.03;;
73331;SDS011;61560;33.718;73.040;2023-04-01T13:24:29;8.00;;;3.60;;
73331;SDS011;61560;33.718;73.040;2023-04-01T13:29:57;7.47;;;3.53;;
73331;SDS011;61560;33.718;73.040;2023-04-01T13:32:29;6.30;;;4.05;;
73331;SDS011;61560;33.718;73.040;2023-04-01T13:45:38;6.60;;;3.85;;
73331;SDS011;61560;33.718;73.040;2023-04-01T13:48:26;8.00;;;3.78;;
73331;SDS011;61560;33.718;73.040;2023-04-01T14:09:52;5.00;;;3.05;;
73331;SDS011;61560;33.718;73.040;2023-04-01T14:15:29;5.78;;;3.50;;
73331;SDS011;61560;33.718;73.040;2023-04-01T14:35:46;3.42;;;2.45;;
73331;SDS011;61560;33.718;73.040;2023-04-01T14:41:13;2.20;;;1.92;;
73331;SDS011;61560;33.718;73.040;2023-04-01T14:51:52;3.80;;;2.28;;
73331;SDS011;61560;33.718;73.040;2023-04-01T14:54:21;3.15;;;2.22;;
73331;SDS011;61560;33.718;73.040;2023-04-01T14:57:13;5.18;;;2.10;;
73331;SDS011;61560;33.718;73.040;2023-04-01T14:59:41;3.55;;;2.20;;
73331;SDS011;61560;33.718;73.040;2023-04-01T15:10:26;4.25;;;2.28;;
73331;SDS011;61560;33.718;73.040;2023-04-01T15:31:15;4.75;;;1.88;;
73331;SDS011;61560;33.718;73.040;2023-04-01T15:33:52;3.97;;;2.08;;
73331;SDS011;61560;33.718;73.040;2023-04-01T15:36:30;4.88;;;2.03;;
73331;SDS011;61560;33.718;73.040;2023-04-01T15:39:17;3.22;;;2.00;;
73331;SDS011;61560;33.718;73.040;2023-04-01T16:11:18;3.30;;;2.05;;
73331;SDS011;61560;33.718;73.040;2023-04-01T16:13:53;3.90;;;1.80;;
73331;SDS011;61560;33.718;73.040;2023-04-01T16:18:54;4.45;;;1.75;;
73331;SDS011;61560;33.718;73.040;2023-04-01T16:26:35;1.48;;;1.35;;
73331;SDS011;61560;33.718;73.040;2023-04-01T16:34:16;1.70;;;1.30;;
73331;SDS011;61560;33.718;73.040;2023-04-01T16:36:53;1.20;;;1.10;;
73331;SDS011;61560;33.718;73.040;2023-04-01T16:42:13;3.17;;;1.30;;
73331;SDS011;61560;33.718;73.040;2023-04-01T16:44:46;2.17;;;1.40;;
73331;SDS011;61560;33.718;73.040;2023-04-01T16:47:15;7.32;;;1.80;;
73331;SDS011;61560;33.718;73.040;2023-04-01T16:52:57;2.65;;;1.63;;
73331;SDS011;61560;33.718;73.040;2023-04-01T16:58:08;2.60;;;1.23;;
73331;SDS011;61560;33.718;73.040;2023-04-01T17:00:40;2.90;;;1.52;;
73331;SDS011;61560;33.718;73.040;2023-04-01T17:03:12;3.85;;;1.40;;
73331;SDS011;61560;33.718;73.040;2023-04-01T17:08:18;2.35;;;1.40;;
73331;SDS011;61560;33.718;73.040;2023-04-01T17:13:53;1.65;;;1.20;;
73331;SDS011;61560;33.718;73.040;2023-04-01T17:39:23;3.90;;;2.03;;
73331;SDS011;61560;33.718;73.040;2023-04-01T17:42:04;6.18;;;1.65;;
73331;SDS011;61560;33.718;73.040;2023-04-01T17:47:19;2.20;;;1.40;;
73331;SDS011;61560;33.718;73.040;2023-04-01T17:50:07;1.80;;;1.13;;
73331;SDS011;61560;33.718;73.040;2023-04-01T17:53:19;4.57;;;1.80;;
73331;SDS011;61560;33.718;73.040;2023-04-01T17:57:57;5.60;;;1.55;;
73331;SDS011;61560;33.718;73.040;2023-04-01T18:06:06;1.63;;;1.48;;
73331;SDS011;61560;33.718;73.040;2023-04-01T18:24:22;3.15;;;1.75;;
73331;SDS011;61560;33.718;73.040;2023-04-01T18:27:15;2.40;;;1.60;;
73331;SDS011;61560;33.718;73.040;2023-04-01T18:29:40;4.07;;;2.20;;
73331;SDS011;61560;33.718;73.040;2023-04-01T18:32:12;4.18;;;1.90;;
73331;SDS011;61560;33.718;73.040;2023-04-01T18:34:55;3.33;;;2.10;;
73331;SDS011;61560;33.718;73.040;2023-04-01T18:37:39;2.92;;;1.90;;
73331;SDS011;61560;33.718;73.040;2023-04-01T18:45:34;2.88;;;1.90;;
73331;SDS011;61560;33.718;73.040;2023-04-01T18:50:59;2.20;;;1.80;;
73331;SDS011;61560;33.718;73.040;2023-04-01T18:53:48;4.03;;;1.95;;
73331;SDS011;61560;33.718;73.040;2023-04-01T19:06:43;3.80;;;1.90;;
73331;SDS011;61560;33.718;73.040;2023-04-01T19:09:18;5.00;;;1.80;;
73331;SDS011;61560;33.718;73.040;2023-04-01T19:14:37;3.38;;;2.03;;
73331;SDS011;61560;33.718;73.040;2023-04-01T19:17:16;3.08;;;2.30;;
73331;SDS011;61560;33.718;73.040;2023-04-01T19:25:33;3.80;;;2.30;;
73331;SDS011;61560;33.718;73.040;2023-04-01T19:27:52;2.83;;;2.03;;
73331;SDS011;61560;33.718;73.040;2023-04-01T19:33:25;8.38;;;2.92;;
73331;SDS011;61560;33.718;73.040;2023-04-01T19:41:15;4.80;;;2.58;;
73331;SDS011;61560;33.718;73.040;2023-04-01T19:43:53;6.35;;;3.22;;
73331;SDS011;61560;33.718;73.040;2023-04-01T19:46:55;6.45;;;2.60;;
73331;SDS011;61560;33.718;73.040;2023-04-01T19:49:22;4.25;;;2.67;;
73331;SDS011;61560;33.718;73.040;2023-04-01T19:57:00;5.68;;;2.72;;
73331;SDS011;61560;33.718;73.040;2023-04-01T20:04:43;9.15;;;3.28;;
73331;SDS011;61560;33.718;73.040;2023-04-01T20:12:30;9.25;;;3.63;;
73331;SDS011;61560;33.718;73.040;2023-04-01T20:15:03;7.00;;;3.40;;
73331;SDS011;61560;33.718;73.040;2023-04-01T20:17:30;8.10;;;3.75;;
73331;SDS011;61560;33.718;73.040;2023-04-01T20:25:15;10.57;;;4.00;;
73331;SDS011;61560;33.718;73.040;2023-04-01T20:27:45;11.50;;;3.75;;
73331;SDS011;61560;33.718;73.040;2023-04-01T20:38:51;6.18;;;2.22;;
73331;SDS011;61560;33.718;73.040;2023-04-01T20:40:44;3.75;;;1.90;;
73331;SDS011;61560;33.718;73.040;2023-04-01T20:53:28;5.45;;;2.33;;
73331;SDS011;61560;33.718;73.040;2023-04-01T20:59:08;3.78;;;1.92;;
73331;SDS011;61560;33.718;73.040;2023-04-01T21:12:27;3.42;;;2.45;;
73331;SDS011;61560;33.718;73.040;2023-04-01T21:17:33;5.40;;;2.83;;
73331;SDS011;61560;33.718;73.040;2023-04-01T21:22:53;3.63;;;2.58;;
73331;SDS011;61560;33.718;73.040;2023-04-01T21:25:26;6.10;;;3.00;;
73331;SDS011;61560;33.718;73.040;2023-04-01T21:33:35;4.45;;;2.20;;
73331;SDS011;61560;33.718;73.040;2023-04-01T21:38:43;5.35;;;2.70;;
73331;SDS011;61560;33.718;73.040;2023-04-01T21:41:25;4.32;;;2.75;;
73331;SDS011;61560;33.718;73.040;2023-04-01T21:52:01;8.35;;;3.67;;
73331;SDS011;61560;33.718;73.040;2023-04-01T21:54:35;6.35;;;3.28;;
73331;SDS011;61560;33.718;73.040;2023-04-01T22:02:31;6.47;;;3.00;;
73331;SDS011;61560;33.718;73.040;2023-04-01T22:15:08;5.82;;;3.78;;
73331;SDS011;61560;33.718;73.040;2023-04-01T22:20:36;11.63;;;5.67;;
73331;SDS011;61560;33.718;73.040;2023-04-01T22:25:50;10.38;;;5.05;;
73331;SDS011;61560;33.718;73.040;2023-04-01T22:28:32;9.35;;;4.80;;
73331;SDS011;61560;33.718;73.040;2023-04-01T22:31:02;8.82;;;3.92;;
73331;SDS011;61560;33.718;73.040;2023-04-01T22:33:38;9.13;;;3.63;;
73331;SDS011;61560;33.718;73.040;2023-04-01T22:44:28;12.00;;;4.90;;
73331;SDS011;61560;33.718;73.040;2023-04-01T22:52:30;8.43;;;4.05;;
73331;SDS011;61560;33.718;73.040;2023-04-01T22:55:09;14.77;;;5.07;;
73331;SDS011;61560;33.718;73.040;2023-04-01T22:57:40;13.60;;;5.47;;
73331;SDS011;61560;33.718;73.040;2023-04-01T23:02:36;12.88;;;5.43;;
73331;SDS011;61560;33.718;73.040;2023-04-01T23:05:05;19.30;;;5.68;;
73331;SDS011;61560;33.718;73.040;2023-04-01T23:10:25;9.55;;;4.80;;
73331;SDS011;61560;33.718;73.040;2023-04-01T23:12:54;15.32;;;5.70;;
73331;SDS011;61560;33.718;73.040;2023-04-01T23:15:22;16.48;;;6.85;;
73331;SDS011;61560;33.718;73.040;2023-04-01T23:17:53;18.02;;;7.05;;
73331;SDS011;61560;33.718;73.040;2023-04-01T23:20:29;18.08;;;6.90;;
73331;SDS011;61560;33.718;73.040;2023-04-01T23:28:22;16.23;;;7.65;;
73331;SDS011;61560;33.718;73.040;2023-04-01T23:30:52;17.98;;;6.60;;
73331;SDS011;61560;33.718;73.040;2023-04-01T23:33:20;13.38;;;5.95;;
73331;SDS011;61560;33.718;73.040;2023-04-01T23:38:14;14.20;;;6.55;;
73331;SDS011;61560;33.718;73.040;2023-04-01T23:40:41;16.25;;;6.45;;
73331;SDS011;61560;33.718;73.040;2023-04-01T23:43:41;12.07;;;5.75;;
73331;SDS011;61560;33.718;73.040;2023-04-01T23:46:02;16.13;;;5.53;;
73331;SDS011;61560;33.718;73.040;2023-04-01T23:48:41;11.32;;;4.45;;
73331;SDS011;61560;33.718;73.040;2023-04-01T23:51:28;7.90;;;3.72;;
73331;SDS011;61560;33.718;73.040;2023-04-01T23:54:02;7.95;;;3.53;;
73331;SDS011;61560;33.718;73.040;2023-04-01T23:56:38;7.80;;;3.75;;
73331;SDS011;61560;33.718;73.040;2023-04-01T23:59:09;8.30;;;3.85;;
